sensor_id;sensor_type;location;lat;lon;timestamp;pressure;altitude;pressure_sealevel;temperature;humidity
6829;BME280;17930;48.592;8.868;2023-12-28T00:01:24;96912.91;;;4.20;100.00
6829;BME280;17930;48.592;8.868;2023-12-28T00:03:51;96911.88;;;4.32;100.00
6829;BME280;17930;48.592;8.868;2023-12-28T00:06:19;96916.72;;;4.29;100.00
6829;BME280;17930;48.592;8.868;2023-12-28T00:08:46;96918.59;;;4.33;100.00
6829;BME280;17930;48.592;8.868;2023-12-28T00:11:14;96916.06;;;4.61;100.00
6829;BME280;17930;48.592;8.868;2023-12-28T00:13:41;96908.72;;;4.69;100.00
6829;BME280;17930;48.592;8.868;2023-12-28T00:16:08;96911.69;;;4.89;100.00
6829;BME280;17930;48.592;8.868;2023-12-28T00:18:35;96902.75;;;4.97;100.00
6829;BME280;17930;48.592;8.868;2023-12-28T00:21:01;96896.28;;;5.43;100.00
6829;BME280;17930;48.592;8.868;2023-12-28T00:23:29;96907.09;;;5.24;100.00
6829;BME280;17930;48.592;8.868;2023-12-28T00:25:56;96926.00;;;4.97;100.00
6829;BME280;17930;48.592;8.868;2023-12-28T00:28:23;96913.91;;;4.86;100.00
6829;BME280;17930;48.592;8.868;2023-12-28T00:30:49;96925.94;;;4.64;100.00
6829;BME280;17930;48.592;8.868;2023-12-28T00:33:16;96919.38;;;4.45;100.00
6829;BME280;17930;48.592;8.868;2023-12-28T00:35:43;96918.28;;;4.69;100.00
6829;BME280;17930;48.592;8.868;2023-12-28T00:38:09;96912.72;;;4.49;100.00
6829;BME280;17930;48.592;8.868;2023-12-28T00:40:37;96924.41;;;4.40;100.00
6829;BME280;17930;48.592;8.868;2023-12-28T00:43:04;96918.41;;;4.23;100.00
6829;BME280;17930;48.592;8.868;2023-12-28T00:45:30;96924.94;;;4.14;100.00
6829;BME280;17930;48.592;8.868;2023-12-28T00:47:57;96909.09;;;4.11;100.00
6829;BME280;17930;48.592;8.868;2023-12-28T00:50:24;96915.59;;;4.13;100.00
6829;BME280;17930;48.592;8.868;2023-12-28T00:52:52;96911.84;;;3.93;100.00
6829;BME280;17930;48.592;8.868;2023-12-28T00:55:19;96923.03;;;4.10;100.00
6829;BME280;17930;48.592;8.868;2023-12-28T00:57:47;96908.81;;;3.85;100.00
6829;BME280;17930;48.592;8.868;2023-12-28T01:00:14;96914.41;;;4.05;100.00
6829;BME280;17930;48.592;8.868;2023-12-28T01:02:41;96917.31;;;3.97;100.00
6829;BME280;17930;48.592;8.868;2023-12-28T01:05:08;96908.03;;;3.73;100.00
6829;BME280;17930;48.592;8.868;2023-12-28T01:07:34;96903.19;;;3.88;100.00
6829;BME280;17930;48.592;8.868;2023-12-28T01:10:01;96907.38;;;3.77;100.00
6829;BME280;17930;48.592;8.868;2023-12-28T01:12:28;96911.59;;;4.06;100.00
6829;BME280;17930;48.592;8.868;2023-12-28T01:14:56;96921.81;;;3.90;100.00
6829;BME280;17930;48.592;8.868;2023-12-28T01:17:23;96918.69;;;3.65;100.00
6829;BME280;17930;48.592;8.868;2023-12-28T01:19:49;96907.88;;;4.02;100.00
6829;BME280;17930;48.592;8.868;2023-12-28T01:22:16;96920.69;;;3.63;100.00
6829;BME280;17930;48.592;8.868;2023-12-28T01:24:46;96927.13;;;3.08;100.00
6829;BME280;17930;48.592;8.868;2023-12-28T01:27:14;96930.28;;;2.81;100.00
6829;BME280;17930;48.592;8.868;2023-12-28T01:29:41;96931.81;;;2.71;100.00
6829;BME280;17930;48.592;8.868;2023-12-28T01:32:09;96936.63;;;2.50;100.00
6829;BME280;17930;48.592;8.868;2023-12-28T01:34:36;96940.50;;;2.23;100.00
6829;BME280;17930;48.592;8.868;2023-12-28T01:37:03;96940.03;;;1.97;100.00
6829;BME280;17930;48.592;8.868;2023-12-28T01:39:29;96936.84;;;1.77;100.00
6829;BME280;17930;48.592;8.868;2023-12-28T01:41:56;96944.69;;;1.82;100.00
6829;BME280;17930;48.592;8.868;2023-12-28T01:44:22;96950.47;;;1.77;100.00
6829;BME280;17930;48.592;8.868;2023-12-28T01:46:50;96961.09;;;1.63;100.00
6829;BME280;17930;48.592;8.868;2023-12-28T01:49:18;96963.50;;;1.58;100.00
6829;BME280;17930;48.592;8.868;2023-12-28T01:51:45;96976.34;;;1.58;100.00
6829;BME280;17930;48.592;8.868;2023-12-28T01:54:12;96967.69;;;1.52;100.00
6829;BME280;17930;48.592;8.868;2023-12-28T01:56:39;96971.81;;;1.29;100.00
6829;BME280;17930;48.592;8.868;2023-12-28T01:59:06;96964.75;;;1.25;100.00
6829;BME280;17930;48.592;8.868;2023-12-28T02:01:33;96969.69;;;1.26;100.00
6829;BME280;17930;48.592;8.868;2023-12-28T02:03:59;96975.38;;;1.28;100.00
6829;BME280;17930;48.592;8.868;2023-12-28T02:06:28;96981.78;;;1.19;100.00
6829;BME280;17930;48.592;8.868;2023-12-28T02:08:55;96984.56;;;1.11;100.00
6829;BME280;17930;48.592;8.868;2023-12-28T02:11:21;96982.97;;;1.17;100.00
6829;BME280;17930;48.592;8.868;2023-12-28T02:13:48;96991.84;;;1.14;100.00
6829;BME280;17930;48.592;8.868;2023-12-28T02:16:18;96998.84;;;1.07;100.00
6829;BME280;17930;48.592;8.868;2023-12-28T02:18:50;96991.38;;;1.00;100.00
6829;BME280;17930;48.592;8.868;2023-12-28T02:21:17;96998.88;;;0.95;100.00
6829;BME280;17930;48.592;8.868;2023-12-28T02:23:47;97003.66;;;0.91;100.00
6829;BME280;17930;48.592;8.868;2023-12-28T02:26:16;97004.50;;;0.79;100.00
6829;BME280;17930;48.592;8.868;2023-12-28T02:28:43;96996.03;;;0.72;100.00
6829;BME280;17930;48.592;8.868;2023-12-28T02:31:14;96991.53;;;0.67;100.00
6829;BME280;17930;48.592;8.868;2023-12-28T02:33:49;97003.31;;;0.75;100.00
6829;BME280;17930;48.592;8.868;2023-12-28T02:36:21;97004.50;;;0.79;100.00
6829;BME280;17930;48.592;8.868;2023-12-28T02:38:51;97005.31;;;0.73;100.00
6829;BME280;17930;48.592;8.868;2023-12-28T02:41:19;97006.19;;;0.54;100.00
6829;BME280;17930;48.592;8.868;2023-12-28T02:43:47;97000.88;;;0.49;100.00
6829;BME280;17930;48.592;8.868;2023-12-28T02:46:14;96995.78;;;0.43;100.00
6829;BME280;17930;48.592;8.868;2023-12-28T02:48:42;97001.88;;;0.48;100.00
6829;BME280;17930;48.592;8.868;2023-12-28T02:51:08;97000.31;;;0.47;100.00
6829;BME280;17930;48.592;8.868;2023-12-28T02:53:35;97002.88;;;0.47;100.00
6829;BME280;17930;48.592;8.868;2023-12-28T02:56:02;96997.28;;;0.63;100.00
6829;BME280;17930;48.592;8.868;2023-12-28T02:58:30;97002.19;;;0.71;100.00
6829;BME280;17930;48.592;8.868;2023-12-28T03:00:57;96998.53;;;0.85;100.00
6829;BME280;17930;48.592;8.868;2023-12-28T03:03:23;96992.44;;;0.86;100.00
6829;BME280;17930;48.592;8.868;2023-12-28T03:05:50;96995.25;;;0.71;100.00
6829;BME280;17930;48.592;8.868;2023-12-28T03:08:17;96985.53;;;0.86;100.00
6829;BME280;17930;48.592;8.868;2023-12-28T03:10:43;96989.72;;;1.11;100.00
6829;BME280;17930;48.592;8.868;2023-12-28T03:13:10;96992.47;;;1.16;100.00
6829;BME280;17930;48.592;8.868;2023-12-28T03:15:38;96995.69;;;1.05;100.00
6829;BME280;17930;48.592;8.868;2023-12-28T03:18:05;96987.28;;;0.86;100.00
6829;BME280;17930;48.592;8.868;2023-12-28T03:20:31;96990.28;;;0.83;100.00
6829;BME280;17930;48.592;8.868;2023-12-28T03:22:58;96989.03;;;0.92;100.00
6829;BME280;17930;48.592;8.868;2023-12-28T03:25:25;96994.22;;;0.79;100.00
6829;BME280;17930;48.592;8.868;2023-12-28T03:27:51;96992.09;;;0.76;100.00
6829;BME280;17930;48.592;8.868;2023-12-28T03:30:20;97000.59;;;0.70;100.00
6829;BME280;17930;48.592;8.868;2023-12-28T03:32:48;97004.16;;;0.69;100.00
6829;BME280;17930;48.592;8.868;2023-12-28T03:35:15;96996.09;;;0.65;100.00
6829;BME280;17930;48.592;8.868;2023-12-28T03:37:41;96997.28;;;0.63;100.00
6829;BME280;17930;48.592;8.868;2023-12-28T03:40:09;96996.50;;;0.56;100.00
6829;BME280;17930;48.592;8.868;2023-12-28T03:42:36;96997.84;;;0.71;100.00
6829;BME280;17930;48.592;8.868;2023-12-28T03:45:05;96999.00;;;0.75;100.00
6829;BME280;17930;48.592;8.868;2023-12-28T03:47:32;96992.69;;;0.78;100.00
6829;BME280;17930;48.592;8.868;2023-12-28T03:50:00;96991.66;;;0.79;100.00
6829;BME280;17930;48.592;8.868;2023-12-28T03:52:27;96985.13;;;0.89;100.00
6829;BME280;17930;48.592;8.868;2023-12-28T03:54:55;96981.66;;;1.08;100.00
6829;BME280;17930;48.592;8.868;2023-12-28T03:57:21;96989.63;;;1.24;100.00
6829;BME280;17930;48.592;8.868;2023-12-28T03:59:48;96981.25;;;1.35;100.00
6829;BME280;17930;48.592;8.868;2023-12-28T04:02:15;96976.75;;;1.55;100.00
6829;BME280;17930;48.592;8.868;2023-12-28T04:04:42;96978.56;;;1.54;100.00
6829;BME280;17930;48.592;8.868;2023-12-28T04:07:10;96975.53;;;1.64;100.00
6829;BME280;17930;48.592;8.868;2023-12-28T04:09:36;96980.34;;;1.78;100.00
6829;BME280;17930;48.592;8.868;2023-12-28T04:12:03;96982.09;;;1.78;100.00
6829;BME280;17930;48.592;8.868;2023-12-28T04:14:30;96982.94;;;1.72;100.00
6829;BME280;17930;48.592;8.868;2023-12-28T04:16:57;96977.66;;;1.67;100.00
6829;BME280;17930;48.592;8.868;2023-12-28T04:19:23;96983.59;;;1.67;100.00
6829;BME280;17930;48.592;8.868;2023-12-28T04:21:50;96979.81;;;1.70;100.00
6829;BME280;17930;48.592;8.868;2023-12-28T04:24:18;96967.38;;;1.67;100.00
6829;BME280;17930;48.592;8.868;2023-12-28T04:26:45;96969.97;;;1.67;100.00
6829;BME280;17930;48.592;8.868;2023-12-28T04:29:11;96972.75;;;1.65;100.00
6829;BME280;17930;48.592;8.868;2023-12-28T04:31:40;96964.41;;;1.70;100.00
6829;BME280;17930;48.592;8.868;2023-12-28T04:34:07;96971.97;;;1.83;100.00
6829;BME280;17930;48.592;8.868;2023-12-28T04:36:39;96967.56;;;2.07;100.00
6829;BME280;17930;48.592;8.868;2023-12-28T04:39:06;96961.59;;;2.31;100.00
6829;BME280;17930;48.592;8.868;2023-12-28T04:41:33;96956.88;;;2.46;100.00
6829;BME280;17930;48.592;8.868;2023-12-28T04:44:00;96951.75;;;2.75;100.00
6829;BME280;17930;48.592;8.868;2023-12-28T04:46:27;96940.31;;;3.01;100.00
6829;BME280;17930;48.592;8.868;2023-12-28T04:48:54;96933.53;;;3.17;100.00
6829;BME280;17930;48.592;8.868;2023-12-28T04:51:20;96927.84;;;3.27;100.00
6829;BME280;17930;48.592;8.868;2023-12-28T04:53:47;96918.97;;;3.23;100.00
6829;BME280;17930;48.592;8.868;2023-12-28T04:56:18;96940.31;;;3.64;100.00
6829;BME280;17930;48.592;8.868;2023-12-28T04:58:46;96947.72;;;3.60;100.00
6829;BME280;17930;48.592;8.868;2023-12-28T05:01:12;96950.97;;;3.56;100.00
6829;BME280;17930;48.592;8.868;2023-12-28T05:03:39;96942.22;;;3.57;100.00
6829;BME280;17930;48.592;8.868;2023-12-28T05:06:06;96952.88;;;3.60;100.00
6829;BME280;17930;48.592;8.868;2023-12-28T05:08:32;96952.53;;;3.57;100.00
6829;BME280;17930;48.592;8.868;2023-12-28T05:10:59;96966.00;;;3.59;100.00
6829;BME280;17930;48.592;8.868;2023-12-28T05:13:26;96974.41;;;3.55;100.00
6829;BME280;17930;48.592;8.868;2023-12-28T05:15:54;96964.72;;;3.61;100.00
6829;BME280;17930;48.592;8.868;2023-12-28T05:18:21;96961.06;;;3.69;100.00
6829;BME280;17930;48.592;8.868;2023-12-28T05:20:48;96975.63;;;3.75;100.00
6829;BME280;17930;48.592;8.868;2023-12-28T05:23:14;96974.88;;;4.08;100.00
6829;BME280;17930;48.592;8.868;2023-12-28T05:25:41;96963.72;;;4.19;100.00
6829;BME280;17930;48.592;8.868;2023-12-28T05:28:07;96966.19;;;4.37;100.00
6829;BME280;17930;48.592;8.868;2023-12-28T05:30:34;96964.59;;;4.36;100.00
6829;BME280;17930;48.592;8.868;2023-12-28T05:33:02;96969.00;;;4.24;100.00
6829;BME280;17930;48.592;8.868;2023-12-28T05:35:29;96961.59;;;4.28;100.00
6829;BME280;17930;48.592;8.868;2023-12-28T05:37:56;96963.41;;;4.16;100.00
6829;BME280;17930;48.592;8.868;2023-12-28T05:40:22;96971.63;;;4.02;100.00
6829;BME280;17930;48.592;8.868;2023-12-28T05:42:49;96960.72;;;4.22;100.00
6829;BME280;17930;48.592;8.868;2023-12-28T05:45:16;96958.97;;;4.39;100.00
6829;BME280;17930;48.592;8.868;2023-12-28T05:47:42;96966.47;;;4.63;100.00
6829;BME280;17930;48.592;8.868;2023-12-28T05:50:11;96958.88;;;4.85;100.00
6829;BME280;17930;48.592;8.868;2023-12-28T05:52:37;96957.66;;;4.76;100.00
6829;BME280;17930;48.592;8.868;2023-12-28T05:55:05;96954.16;;;4.82;100.00
6829;BME280;17930;48.592;8.868;2023-12-28T05:57:31;96947.28;;;4.87;100.00
6829;BME280;17930;48.592;8.868;2023-12-28T05:59:58;96950.28;;;4.96;100.00
6829;BME280;17930;48.592;8.868;2023-12-28T06:02:25;96952.97;;;5.01;100.00
6829;BME280;17930;48.592;8.868;2023-12-28T06:04:51;96951.44;;;5.32;100.00
6829;BME280;17930;48.592;8.868;2023-12-28T06:07:19;96948.69;;;5.22;100.00
6829;BME280;17930;48.592;8.868;2023-12-28T06:09:46;96959.25;;;5.05;100.00
6829;BME280;17930;48.592;8.868;2023-12-28T06:12:14;96960.41;;;4.86;100.00
6829;BME280;17930;48.592;8.868;2023-12-28T06:14:41;96954.25;;;5.14;100.00
6829;BME280;17930;48.592;8.868;2023-12-28T06:17:08;96959.84;;;5.39;100.00
6829;BME280;17930;48.592;8.868;2023-12-28T06:19:35;96956.41;;;5.66;100.00
6829;BME280;17930;48.592;8.868;2023-12-28T06:22:02;96971.38;;;5.48;100.00
6829;BME280;17930;48.592;8.868;2023-12-28T06:24:30;96964.13;;;5.17;100.00
6829;BME280;17930;48.592;8.868;2023-12-28T06:26:57;96970.16;;;4.95;100.00
6829;BME280;17930;48.592;8.868;2023-12-28T06:29:23;96974.38;;;4.85;100.00
6829;BME280;17930;48.592;8.868;2023-12-28T06:31:50;96975.03;;;4.92;100.00
6829;BME280;17930;48.592;8.868;2023-12-28T06:34:17;96966.44;;;5.03;100.00
6829;BME280;17930;48.592;8.868;2023-12-28T06:36:43;96966.13;;;4.99;100.00
6829;BME280;17930;48.592;8.868;2023-12-28T06:39:10;96973.75;;;4.94;100.00
6829;BME280;17930;48.592;8.868;2023-12-28T06:41:38;96971.47;;;5.09;100.00
6829;BME280;17930;48.592;8.868;2023-12-28T06:44:05;96977.88;;;5.07;100.00
6829;BME280;17930;48.592;8.868;2023-12-28T06:46:32;96982.41;;;5.00;100.00
6829;BME280;17930;48.592;8.868;2023-12-28T06:48:59;96976.91;;;4.96;100.00
6829;BME280;17930;48.592;8.868;2023-12-28T06:51:25;96985.44;;;4.97;100.00
6829;BME280;17930;48.592;8.868;2023-12-28T06:53:52;96984.63;;;5.07;100.00
6829;BME280;17930;48.592;8.868;2023-12-28T06:56:19;96974.63;;;5.27;100.00
6829;BME280;17930;48.592;8.868;2023-12-28T06:58:47;96978.41;;;5.36;100.00
6829;BME280;17930;48.592;8.868;2023-12-28T07:01:14;96985.22;;;5.42;100.00
6829;BME280;17930;48.592;8.868;2023-12-28T07:03:41;96987.75;;;5.37;100.00
6829;BME280;17930;48.592;8.868;2023-12-28T07:06:07;96982.56;;;5.37;100.00
6829;BME280;17930;48.592;8.868;2023-12-28T07:08:34;96990.16;;;5.44;100.00
6829;BME280;17930;48.592;8.868;2023-12-28T07:11:01;96992.69;;;5.71;100.00
6829;BME280;17930;48.592;8.868;2023-12-28T07:13:28;96986.66;;;5.66;100.00
6829;BME280;17930;48.592;8.868;2023-12-28T07:15:56;96992.25;;;5.58;100.00
6829;BME280;17930;48.592;8.868;2023-12-28T07:18:23;96990.50;;;5.63;100.00
6829;BME280;17930;48.592;8.868;2023-12-28T07:20:50;96986.84;;;5.76;100.00
6829;BME280;17930;48.592;8.868;2023-12-28T07:23:16;96984.81;;;5.78;100.00
6829;BME280;17930;48.592;8.868;2023-12-28T07:25:43;96984.34;;;5.81;100.00
6829;BME280;17930;48.592;8.868;2023-12-28T07:28:10;96982.84;;;6.01;100.00
6829;BME280;17930;48.592;8.868;2023-12-28T07:30:37;96975.78;;;5.97;100.00
6829;BME280;17930;48.592;8.868;2023-12-28T07:33:05;96989.97;;;6.11;100.00
6829;BME280;17930;48.592;8.868;2023-12-28T07:35:32;96977.66;;;6.01;100.00
6829;BME280;17930;48.592;8.868;2023-12-28T07:37:58;96974.53;;;5.99;100.00
6829;BME280;17930;48.592;8.868;2023-12-28T07:40:25;96967.31;;;6.17;100.00
6829;BME280;17930;48.592;8.868;2023-12-28T07:42:52;96970.03;;;6.11;100.00
6829;BME280;17930;48.592;8.868;2023-12-28T07:45:18;96980.09;;;6.45;100.00
6829;BME280;17930;48.592;8.868;2023-12-28T07:47:49;96976.78;;;6.50;100.00
6829;BME280;17930;48.592;8.868;2023-12-28T07:50:17;96987.94;;;6.50;100.00
6829;BME280;17930;48.592;8.868;2023-12-28T07:52:44;96988.53;;;6.57;100.00
6829;BME280;17930;48.592;8.868;2023-12-28T07:55:11;96997.81;;;6.53;100.00
6829;BME280;17930;48.592;8.868;2023-12-28T07:57:38;96989.97;;;6.48;100.00
6829;BME280;17930;48.592;8.868;2023-12-28T08:00:06;97004.91;;;6.41;100.00
6829;BME280;17930;48.592;8.868;2023-12-28T08:02:33;97004.91;;;6.41;100.00
6829;BME280;17930;48.592;8.868;2023-12-28T08:05:00;97008.84;;;6.86;100.00
6829;BME280;17930;48.592;8.868;2023-12-28T08:07:28;97014.88;;;6.70;100.00
6829;BME280;17930;48.592;8.868;2023-12-28T08:09:54;97004.22;;;6.67;100.00
6829;BME280;17930;48.592;8.868;2023-12-28T08:12:21;97016.69;;;6.70;100.00
6829;BME280;17930;48.592;8.868;2023-12-28T08:14:50;97007.47;;;6.79;100.00
6829;BME280;17930;48.592;8.868;2023-12-28T08:17:17;97009.31;;;7.05;100.00
6829;BME280;17930;48.592;8.868;2023-12-28T08:19:43;97014.97;;;7.49;100.00
6829;BME280;17930;48.592;8.868;2023-12-28T08:22:10;97016.84;;;7.27;100.00
6829;BME280;17930;48.592;8.868;2023-12-28T08:24:38;97033.25;;;7.12;100.00
6829;BME280;17930;48.592;8.868;2023-12-28T08:27:04;97018.97;;;7.09;100.00
6829;BME280;17930;48.592;8.868;2023-12-28T08:29:31;97024.84;;;7.00;100.00
6829;BME280;17930;48.592;8.868;2023-12-28T08:31:59;97029.25;;;6.99;100.00
6829;BME280;17930;48.592;8.868;2023-12-28T08:34:25;97024.94;;;7.10;100.00
6829;BME280;17930;48.592;8.868;2023-12-28T08:36:53;97033.22;;;7.07;100.00
6829;BME280;17930;48.592;8.868;2023-12-28T08:39:20;97034.97;;;6.80;100.00
6829;BME280;17930;48.592;8.868;2023-12-28T08:41:48;97043.84;;;6.67;100.00
6829;BME280;17930;48.592;8.868;2023-12-28T08:44:15;97036.28;;;6.61;100.00
6829;BME280;17930;48.592;8.868;2023-12-28T08:46:41;97031.94;;;6.88;100.00
6829;BME280;17930;48.592;8.868;2023-12-28T08:49:08;97034.00;;;6.86;100.00
6829;BME280;17930;48.592;8.868;2023-12-28T08:51:35;97037.41;;;6.70;100.00
6829;BME280;17930;48.592;8.868;2023-12-28T08:54:01;97038.38;;;6.64;100.00
6829;BME280;17930;48.592;8.868;2023-12-28T08:56:28;97033.25;;;6.69;100.00
6829;BME280;17930;48.592;8.868;2023-12-28T08:58:57;97039.81;;;6.98;100.00
6829;BME280;17930;48.592;8.868;2023-12-28T09:01:24;97032.38;;;7.01;100.00
6829;BME280;17930;48.592;8.868;2023-12-28T09:03:52;97027.22;;;7.06;100.00
6829;BME280;17930;48.592;8.868;2023-12-28T09:06:19;97026.41;;;7.01;100.00
6829;BME280;17930;48.592;8.868;2023-12-28T09:08:48;97019.56;;;6.95;100.00
6829;BME280;17930;48.592;8.868;2023-12-28T09:11:16;97035.69;;;6.97;100.00
6829;BME280;17930;48.592;8.868;2023-12-28T09:13:43;97028.25;;;7.26;100.00
6829;BME280;17930;48.592;8.868;2023-12-28T09:16:12;97022.03;;;7.27;100.00
6829;BME280;17930;48.592;8.868;2023-12-28T09:18:40;97031.69;;;7.32;100.00
6829;BME280;17930;48.592;8.868;2023-12-28T09:21:08;97039.16;;;7.28;100.00
6829;BME280;17930;48.592;8.868;2023-12-28T09:23:35;97033.56;;;7.41;100.00
6829;BME280;17930;48.592;8.868;2023-12-28T09:26:03;97046.13;;;7.49;100.00
6829;BME280;17930;48.592;8.868;2023-12-28T09:28:30;97043.19;;;7.67;100.00
6829;BME280;17930;48.592;8.868;2023-12-28T09:30:57;97046.41;;;7.79;100.00
6829;BME280;17930;48.592;8.868;2023-12-28T09:33:25;97050.59;;;7.85;100.00
6829;BME280;17930;48.592;8.868;2023-12-28T09:35:52;97049.03;;;7.84;100.00
6829;BME280;17930;48.592;8.868;2023-12-28T09:38:19;97059.41;;;7.84;100.00
6829;BME280;17930;48.592;8.868;2023-12-28T09:40:47;97052.22;;;7.91;100.00
6829;BME280;17930;48.592;8.868;2023-12-28T09:43:21;97056.88;;;8.15;100.00
6829;BME280;17930;48.592;8.868;2023-12-28T09:45:48;97068.63;;;8.22;100.00
6829;BME280;17930;48.592;8.868;2023-12-28T09:48:15;97066.59;;;8.29;100.00
6829;BME280;17930;48.592;8.868;2023-12-28T09:50:44;97071.50;;;8.67;100.00
6829;BME280;17930;48.592;8.868;2023-12-28T09:53:12;97074.81;;;8.99;100.00
6829;BME280;17930;48.592;8.868;2023-12-28T09:55:38;97069.44;;;9.25;100.00
6829;BME280;17930;48.592;8.868;2023-12-28T09:58:05;97073.44;;;9.47;100.00
6829;BME280;17930;48.592;8.868;2023-12-28T10:00:32;97066.75;;;9.76;100.00
6829;BME280;17930;48.592;8.868;2023-12-28T10:02:59;97068.84;;;9.89;100.00
6829;BME280;17930;48.592;8.868;2023-12-28T10:05:26;97064.97;;;10.01;100.00
6829;BME280;17930;48.592;8.868;2023-12-28T10:07:55;97067.06;;;10.09;100.00
6829;BME280;17930;48.592;8.868;2023-12-28T10:10:22;97058.47;;;10.14;100.00
6829;BME280;17930;48.592;8.868;2023-12-28T10:12:48;97057.94;;;10.26;100.00
6829;BME280;17930;48.592;8.868;2023-12-28T10:15:16;97053.78;;;10.25;100.00
6829;BME280;17930;48.592;8.868;2023-12-28T10:17:42;97051.16;;;10.30;100.00
6829;BME280;17930;48.592;8.868;2023-12-28T10:20:09;97041.75;;;10.29;100.00
6829;BME280;17930;48.592;8.868;2023-12-28T10:22:37;97047.25;;;10.33;100.00
6829;BME280;17930;48.592;8.868;2023-12-28T10:25:06;97040.97;;;10.39;100.00
6829;BME280;17930;48.592;8.868;2023-12-28T10:27:38;97052.47;;;10.43;100.00
6829;BME280;17930;48.592;8.868;2023-12-28T10:30:06;97052.97;;;10.45;100.00
6829;BME280;17930;48.592;8.868;2023-12-28T10:32:33;97048.53;;;10.50;100.00
6829;BME280;17930;48.592;8.868;2023-12-28T10:35:00;97026.34;;;10.63;100.00
6829;BME280;17930;48.592;8.868;2023-12-28T10:37:27;97017.94;;;10.80;100.00
6829;BME280;17930;48.592;8.868;2023-12-28T10:39:54;97020.50;;;10.90;100.00
6829;BME280;17930;48.592;8.868;2023-12-28T10:42:28;97028.09;;;10.92;100.00
6829;BME280;17930;48.592;8.868;2023-12-28T10:45:01;97012.97;;;10.84;100.00
6829;BME280;17930;48.592;8.868;2023-12-28T10:47:31;97010.56;;;11.02;100.00
6829;BME280;17930;48.592;8.868;2023-12-28T10:50:00;97024.44;;;10.88;100.00
6829;BME280;17930;48.592;8.868;2023-12-28T10:52:29;97010.63;;;10.82;100.00
6829;BME280;17930;48.592;8.868;2023-12-28T10:55:04;97003.03;;;10.91;100.00
6829;BME280;17930;48.592;8.868;2023-12-28T10:57:40;97007.47;;;10.90;100.00
6829;BME280;17930;48.592;8.868;2023-12-28T11:00:13;97008.75;;;10.93;100.00
6829;BME280;17930;48.592;8.868;2023-12-28T11:02:44;97003.00;;;11.01;100.00
6829;BME280;17930;48.592;8.868;2023-12-28T11:05:12;96997.47;;;11.12;100.00
6829;BME280;17930;48.592;8.868;2023-12-28T11:07:39;96991.25;;;11.03;100.00
6829;BME280;17930;48.592;8.868;2023-12-28T11:10:08;96998.53;;;11.06;100.00
6829;BME280;17930;48.592;8.868;2023-12-28T11:12:37;96992.78;;;11.04;100.00
6829;BME280;17930;48.592;8.868;2023-12-28T11:15:05;96989.91;;;11.06;100.00
6829;BME280;17930;48.592;8.868;2023-12-28T11:17:33;96982.03;;;11.21;100.00
6829;BME280;17930;48.592;8.868;2023-12-28T11:20:02;96987.78;;;11.18;100.00
6829;BME280;17930;48.592;8.868;2023-12-28T11:22:30;96973.03;;;11.36;100.00
6829;BME280;17930;48.592;8.868;2023-12-28T11:24:57;96976.13;;;11.43;100.00
6829;BME280;17930;48.592;8.868;2023-12-28T11:27:24;96974.44;;;11.67;100.00
6829;BME280;17930;48.592;8.868;2023-12-28T11:29:53;96971.75;;;11.77;100.00
6829;BME280;17930;48.592;8.868;2023-12-28T11:32:19;96973.75;;;11.52;100.00
6829;BME280;17930;48.592;8.868;2023-12-28T11:34:56;96979.78;;;11.42;100.00
6829;BME280;17930;48.592;8.868;2023-12-28T11:37:23;96981.91;;;11.35;100.00
6829;BME280;17930;48.592;8.868;2023-12-28T11:39:52;96989.81;;;11.25;100.00
6829;BME280;17930;48.592;8.868;2023-12-28T11:42:20;96982.56;;;11.18;100.00
6829;BME280;17930;48.592;8.868;2023-12-28T11:44:55;96982.06;;;11.11;100.00
6829;BME280;17930;48.592;8.868;2023-12-28T11:47:22;96976.03;;;11.15;100.00
6829;BME280;17930;48.592;8.868;2023-12-28T11:49:50;96975.00;;;11.16;100.00
6829;BME280;17930;48.592;8.868;2023-12-28T11:52:23;96978.41;;;11.12;100.00
6829;BME280;17930;48.592;8.868;2023-12-28T11:54:50;96976.31;;;11.14;100.00
6829;BME280;17930;48.592;8.868;2023-12-28T11:57:17;96976.25;;;11.19;100.00
6829;BME280;17930;48.592;8.868;2023-12-28T11:59:43;96969.78;;;11.16;100.00
6829;BME280;17930;48.592;8.868;2023-12-28T12:02:11;96967.44;;;11.15;100.00
6829;BME280;17930;48.592;8.868;2023-12-28T12:04:38;96968.50;;;11.09;100.00
6829;BME280;17930;48.592;8.868;2023-12-28T12:07:05;96958.00;;;11.19;100.00
6829;BME280;17930;48.592;8.868;2023-12-28T12:09:31;96959.34;;;11.16;100.00
6829;BME280;17930;48.592;8.868;2023-12-28T12:12:00;96949.59;;;11.26;100.00
6829;BME280;17930;48.592;8.868;2023-12-28T12:14:26;96947.59;;;11.14;100.00
6829;BME280;17930;48.592;8.868;2023-12-28T12:16:54;96944.97;;;11.14;100.00
6829;BME280;17930;48.592;8.868;2023-12-28T12:19:23;96942.44;;;10.99;100.00
6829;BME280;17930;48.592;8.868;2023-12-28T12:21:51;96946.88;;;10.98;100.00
6829;BME280;17930;48.592;8.868;2023-12-28T12:24:18;96940.47;;;10.81;100.00
6829;BME280;17930;48.592;8.868;2023-12-28T12:26:45;96938.13;;;10.79;100.00
6829;BME280;17930;48.592;8.868;2023-12-28T12:29:12;96944.63;;;10.77;100.00
6829;BME280;17930;48.592;8.868;2023-12-28T12:31:40;96930.50;;;10.88;100.00
6829;BME280;17930;48.592;8.868;2023-12-28T12:34:08;96943.28;;;10.89;100.00
6829;BME280;17930;48.592;8.868;2023-12-28T12:36:37;96939.91;;;10.84;100.00
6829;BME280;17930;48.592;8.868;2023-12-28T12:39:04;96936.28;;;10.85;100.00
6829;BME280;17930;48.592;8.868;2023-12-28T12:41:31;96937.09;;;10.75;100.00
6829;BME280;17930;48.592;8.868;2023-12-28T12:43:58;96944.09;;;10.80;100.00
6829;BME280;17930;48.592;8.868;2023-12-28T12:46:25;96944.38;;;10.78;100.00
6829;BME280;17930;48.592;8.868;2023-12-28T12:48:55;96945.94;;;10.74;100.00
6829;BME280;17930;48.592;8.868;2023-12-28T12:51:22;96947.06;;;10.59;100.00
6829;BME280;17930;48.592;8.868;2023-12-28T12:53:50;96951.78;;;10.52;100.00
6829;BME280;17930;48.592;8.868;2023-12-28T12:56:21;96941.59;;;10.50;100.00
6829;BME280;17930;48.592;8.868;2023-12-28T12:58:48;96940.34;;;10.43;100.00
6829;BME280;17930;48.592;8.868;2023-12-28T13:01:15;96945.28;;;10.44;100.00
6829;BME280;17930;48.592;8.868;2023-12-28T13:03:42;96941.41;;;10.37;100.00
6829;BME280;17930;48.592;8.868;2023-12-28T13:06:08;96946.38;;;10.28;100.00
6829;BME280;17930;48.592;8.868;2023-12-28T13:08:35;96943.53;;;10.20;100.00